Time;durP1;ratioP1;P1;durP2;ratioP2;P2;SDS_P1;SDS_P2;PMS_P1;PMS_P2;Temp;Humidity;BMP_temperature;BMP_pressure;BME280_temperature;BME280_humidity;BME280_pressure;Samples;Min_cycle;Max_cycle;Signal;HPM_P1;HPM_P2
2022/11/15 00:02:27;;;;;;;5.38;4.97;;;;;;;;;;4978013;28;43490;-60
2022/11/15 00:05:13;;;;;;;5.70;5.20;;;;;;;;;;4959199;28;43473;-61
2022/11/15 00:07:59;;;;;;;6.15;5.65;;;;;;;;;;4973960;28;43522;-60
2022/11/15 00:10:55;;;;;;;5.88;5.38;;;;;;;;;;4976519;28;43784;-60
2022/11/15 00:13:42;;;;;;;6.20;5.70;;;;;;;;;;4980083;28;43690;-60
2022/11/15 00:16:28;;;;;;;5.88;5.38;;;;;;;;;;4976328;28;43439;-60
2022/11/15 00:19:15;;;;;;;6.13;5.60;;;;;;;;;;4977192;28;43497;-60
2022/11/15 00:22:02;;;;;;;6.00;5.50;;;;;;;;;;4977918;28;44050;-61
2022/11/15 00:24:48;;;;;;;6.07;5.57;;;;;;;;;;4976708;28;43549;-60
2022/11/15 00:27:35;;;;;;;5.97;5.47;;;;;;;;;;4980503;28;43383;-60
2022/11/15 00:30:21;;;;;;;6.20;5.60;;;;;;;;;;4973745;28;43434;-60
2022/11/15 00:33:09;;;;;;;5.35;4.85;;;;;;;;;;4973762;28;43978;-60
2022/11/15 00:36:05;;;;;;;5.75;5.25;;;;;;;;;;4973422;28;43439;-60
2022/11/15 00:38:52;;;;;;;5.18;4.78;;;;;;;;;;4976558;28;43429;-60
2022/11/15 00:41:38;;;;;;;5.20;4.80;;;;;;;;;;4978617;28;43461;-60
2022/11/15 00:44:25;;;;;;;5.50;5.00;;;;;;;;;;4980648;28;44025;-60
2022/11/15 00:47:11;;;;;;;5.60;5.10;;;;;;;;;;4972358;28;44051;-60
2022/11/15 00:49:58;;;;;;;5.07;4.68;;;;;;;;;;4975475;28;43331;-60
2022/11/15 00:52:45;;;;;;;5.78;5.28;;;;;;;;;;4975838;28;43449;-61
2022/11/15 00:55:33;;;;;;;5.80;5.30;;;;;;;;;;4977109;28;43887;-61
2022/11/15 00:58:19;;;;;;;5.18;4.78;;;;;;;;;;4978579;28;43525;-60
2022/11/15 01:01:07;;;;;;;5.15;4.75;;;;;;;;;;4978877;28;43382;-60
2022/11/15 01:03:53;;;;;;;5.00;4.60;;;;;;;;;;4971110;28;43414;-61
2022/11/15 01:06:46;;;;;;;4.82;4.43;;;;;;;;;;4978817;28;43789;-61
2022/11/15 01:09:32;;;;;;;5.30;4.80;;;;;;;;;;4973839;28;43331;-60
2022/11/15 01:12:19;;;;;;;5.05;4.65;;;;;;;;;;4976769;28;43443;-60
2022/11/15 01:15:06;;;;;;;5.38;4.88;;;;;;;;;;4972310;28;43487;-60
2022/11/15 01:17:53;;;;;;;5.28;4.88;;;;;;;;;;4972611;28;44039;-61
2022/11/15 01:20:41;;;;;;;5.15;4.75;;;;;;;;;;4979113;28;43423;-61
2022/11/15 01:23:27;;;;;;;5.35;4.95;;;;;;;;;;4974829;28;43868;-61
2022/11/15 01:26:14;;;;;;;5.38;4.95;;;;;;;;;;4975763;28;43548;-61
2022/11/15 01:29:01;;;;;;;5.43;4.93;;;;;;;;;;4971901;28;43801;-61
2022/11/15 01:31:47;;;;;;;5.25;4.85;;;;;;;;;;4970712;28;43509;-61
2022/11/15 01:34:34;;;;;;;5.10;4.70;;;;;;;;;;4971261;28;43467;-60
2022/11/15 01:37:20;;;;;;;5.10;4.70;;;;;;;;;;4971805;28;43463;-60
2022/11/15 01:40:06;;;;;;;5.28;4.78;;;;;;;;;;4978722;28;43821;-60
2022/11/15 01:42:52;;;;;;;5.32;4.85;;;;;;;;;;4973907;28;43717;-60
2022/11/15 01:45:39;;;;;;;4.72;4.32;;;;;;;;;;4976554;28;43398;-61
2022/11/15 01:48:29;;;;;;;4.93;4.53;;;;;;;;;;4978446;28;43506;-61
2022/11/15 01:51:17;;;;;;;5.18;4.68;;;;;;;;;;4974789;28;43890;-61
2022/11/15 01:54:08;;;;;;;5.10;4.70;;;;;;;;;;4977883;28;43363;-61
2022/11/15 01:56:59;;;;;;;5.60;5.10;;;;;;;;;;4974227;28;43510;-61
2022/11/15 01:59:46;;;;;;;4.95;4.57;;;;;;;;;;4954823;28;43530;-61
2022/11/15 02:02:33;;;;;;;4.38;4.05;;;;;;;;;;4973121;28;43800;-60
2022/11/15 02:05:19;;;;;;;4.90;4.50;;;;;;;;;;4975272;28;43481;-60
2022/11/15 02:08:06;;;;;;;4.93;4.53;;;;;;;;;;4975074;28;43382;-60
2022/11/15 02:10:53;;;;;;;5.00;4.60;;;;;;;;;;4971118;28;43543;-61
2022/11/15 02:13:39;;;;;;;5.15;4.75;;;;;;;;;;4978995;28;43909;-61
2022/11/15 02:16:43;;;;;;;4.70;4.30;;;;;;;;;;4974175;28;44017;-61
2022/11/15 02:19:33;;;;;;;4.57;4.28;;;;;;;;;;4978898;28;43371;-61
2022/11/15 02:22:37;;;;;;;4.60;4.30;;;;;;;;;;4977785;28;43477;-61
2022/11/15 02:25:35;;;;;;;4.82;4.43;;;;;;;;;;4981666;28;43801;-61
2022/11/15 02:28:40;;;;;;;4.68;4.28;;;;;;;;;;4978579;28;44255;-61
2022/11/15 02:31:32;;;;;;;4.90;4.50;;;;;;;;;;4981450;28;43453;-60
2022/11/15 02:34:26;;;;;;;4.93;4.50;;;;;;;;;;4978983;28;43520;-61
2022/11/15 02:37:18;;;;;;;5.07;4.65;;;;;;;;;;4981795;28;44096;-61
2022/11/15 02:40:14;;;;;;;5.13;4.72;;;;;;;;;;4976523;28;43866;-60
2022/11/15 02:46:16;;;;;;;4.85;4.45;;;;;;;;;;4974136;28;43414;-61
2022/11/15 02:49:02;;;;;;;4.35;4.05;;;;;;;;;;4981401;28;43869;-61
2022/11/15 02:51:49;;;;;;;4.45;4.15;;;;;;;;;;4976714;28;43430;-61
2022/11/15 02:54:36;;;;;;;4.32;4.03;;;;;;;;;;4978145;28;43443;-61
2022/11/15 02:57:39;;;;;;;4.40;4.10;;;;;;;;;;4979414;28;43402;-61
2022/11/15 03:00:28;;;;;;;4.00;3.70;;;;;;;;;;4977174;28;44094;-61
2022/11/15 03:03:33;;;;;;;4.63;4.20;;;;;;;;;;4979718;28;44119;-61
2022/11/15 03:06:38;;;;;;;4.65;4.25;;;;;;;;;;4976900;28;43489;-61
2022/11/15 03:09:29;;;;;;;4.60;4.30;;;;;;;;;;4961537;28;43601;-61
2022/11/15 03:12:19;;;;;;;4.65;4.35;;;;;;;;;;4977738;28;43924;-61
2022/11/15 03:15:08;;;;;;;4.60;4.20;;;;;;;;;;4971417;28;43366;-60
2022/11/15 03:17:57;;;;;;;4.45;4.05;;;;;;;;;;4970915;28;43438;-60
2022/11/15 03:20:45;;;;;;;4.70;4.28;;;;;;;;;;4962365;28;43561;-61
2022/11/15 03:23:32;;;;;;;4.10;3.80;;;;;;;;;;4966969;28;44061;-61
2022/11/15 03:26:20;;;;;;;4.15;3.85;;;;;;;;;;4971843;28;43473;-61
2022/11/15 03:29:09;;;;;;;3.85;3.53;;;;;;;;;;4975442;28;43454;-61
2022/11/15 03:31:59;;;;;;;4.30;4.00;;;;;;;;;;4977253;28;43541;-60
2022/11/15 03:34:51;;;;;;;4.25;3.90;;;;;;;;;;4973893;28;43871;-61
2022/11/15 03:37:41;;;;;;;4.25;3.95;;;;;;;;;;4978336;28;43418;-61
2022/11/15 03:40:37;;;;;;;4.00;3.70;;;;;;;;;;4980549;28;43399;-61
2022/11/15 03:43:29;;;;;;;4.18;3.88;;;;;;;;;;4973775;28;43396;-61
2022/11/15 03:46:39;;;;;;;4.22;3.92;;;;;;;;;;4963295;28;43937;-61
2022/11/15 03:49:28;;;;;;;4.10;3.72;;;;;;;;;;4975131;28;43447;-61
2022/11/15 03:52:17;;;;;;;4.25;3.92;;;;;;;;;;4980607;28;43386;-61
2022/11/15 03:55:05;;;;;;;4.50;4.10;;;;;;;;;;4973017;28;43426;-61
2022/11/15 03:57:53;;;;;;;4.38;3.97;;;;;;;;;;4979211;28;43968;-60
2022/11/15 04:00:39;;;;;;;4.30;4.00;;;;;;;;;;4976125;28;43493;-61
2022/11/15 04:03:26;;;;;;;4.10;3.80;;;;;;;;;;4977347;28;43391;-61
2022/11/15 04:06:13;;;;;;;4.00;3.60;;;;;;;;;;4978726;28;43447;-61
2022/11/15 04:08:59;;;;;;;3.70;3.40;;;;;;;;;;4977025;28;43969;-61
2022/11/15 04:11:45;;;;;;;3.80;3.50;;;;;;;;;;4979831;28;43734;-61
2022/11/15 04:14:32;;;;;;;3.70;3.40;;;;;;;;;;4976823;28;43445;-61
2022/11/15 04:17:19;;;;;;;3.70;3.40;;;;;;;;;;4976305;28;43460;-61
2022/11/15 04:26:19;;;;;;;4.22;3.92;;;;;;;;;;4977455;28;43536;-60
2022/11/15 04:32:11;;;;;;;4.10;3.80;;;;;;;;;;4976514;28;43796;-60
2022/11/15 04:34:57;;;;;;;3.80;3.50;;;;;;;;;;4976810;28;43395;-61
2022/11/15 04:37:44;;;;;;;3.75;3.45;;;;;;;;;;4977746;28;43516;-60
2022/11/15 04:40:34;;;;;;;4.30;3.90;;;;;;;;;;4975152;28;43457;-61
2022/11/15 04:43:21;;;;;;;3.90;3.60;;;;;;;;;;4973771;28;43950;-61
2022/11/15 04:46:07;;;;;;;3.70;3.40;;;;;;;;;;4971343;28;43784;-61
2022/11/15 04:48:54;;;;;;;4.22;3.83;;;;;;;;;;4973165;28;43497;-61
2022/11/15 04:51:44;;;;;;;4.73;3.90;;;;;;;;;;4974696;28;43431;-61
2022/11/15 04:54:30;;;;;;;3.63;3.33;;;;;;;;;;4976808;28;44967;-60
2022/11/15 04:57:17;;;;;;;4.40;3.65;;;;;;;;;;4977909;28;43438;-61
2022/11/15 05:00:07;;;;;;;4.05;3.75;;;;;;;;;;4972378;28;43453;-61
2022/11/15 05:05:59;;;;;;;4.05;3.67;;;;;;;;;;4971981;28;44068;-61
2022/11/15 05:08:45;;;;;;;3.92;3.63;;;;;;;;;;4962108;28;43435;-61
2022/11/15 05:11:32;;;;;;;3.55;3.25;;;;;;;;;;4975931;28;43465;-61
2022/11/15 05:14:18;;;;;;;3.80;3.50;;;;;;;;;;4958695;28;43672;-61
2022/11/15 05:17:04;;;;;;;3.70;3.28;;;;;;;;;;4972877;28;44024;-61
2022/11/15 05:19:51;;;;;;;4.40;3.55;;;;;;;;;;4976790;28;43583;-61
2022/11/15 05:22:38;;;;;;;3.47;3.17;;;;;;;;;;4979957;28;43369;-60
2022/11/15 05:25:24;;;;;;;4.00;3.67;;;;;;;;;;4976748;28;43466;-60
2022/11/15 05:28:11;;;;;;;4.05;3.63;;;;;;;;;;4969559;28;43583;-61
2022/11/15 05:31:01;;;;;;;3.88;3.58;;;;;;;;;;4973143;28;43514;-61
2022/11/15 05:33:49;;;;;;;3.95;3.63;;;;;;;;;;4977640;28;43487;-61
2022/11/15 05:36:41;;;;;;;3.95;3.65;;;;;;;;;;4978208;28;43541;-61
2022/11/15 05:39:28;;;;;;;4.05;3.75;;;;;;;;;;4955822;28;44097;-61
2022/11/15 05:42:15;;;;;;;3.60;3.30;;;;;;;;;;4971742;28;43656;-60
2022/11/15 05:45:03;;;;;;;4.10;3.70;;;;;;;;;;4975097;28;43477;-61
2022/11/15 05:47:50;;;;;;;3.70;3.40;;;;;;;;;;4975718;28;43535;-60
2022/11/15 05:50:42;;;;;;;4.30;3.90;;;;;;;;;;4950164;28;44194;-61
2022/11/15 05:53:28;;;;;;;3.92;3.63;;;;;;;;;;4975889;28;43491;-61
2022/11/15 05:56:15;;;;;;;4.18;3.80;;;;;;;;;;4976862;28;43502;-60
2022/11/15 05:59:02;;;;;;;3.88;3.47;;;;;;;;;;4975913;28;43634;-60
2022/11/15 06:01:48;;;;;;;3.70;3.40;;;;;;;;;;4978374;28;43788;-61
2022/11/15 06:04:35;;;;;;;4.15;3.53;;;;;;;;;;4986812;28;43578;-61
2022/11/15 06:07:21;;;;;;;4.07;3.67;;;;;;;;;;4979740;28;43521;-61
2022/11/15 06:10:07;;;;;;;4.15;3.75;;;;;;;;;;4976293;28;43515;-60
2022/11/15 06:13:04;;;;;;;3.95;3.65;;;;;;;;;;4974669;28;45148;-61
2022/11/15 06:15:50;;;;;;;4.63;3.80;;;;;;;;;;4977522;28;43749;-61
2022/11/15 06:18:37;;;;;;;4.00;3.65;;;;;;;;;;4963820;28;43432;-61
2022/11/15 06:21:24;;;;;;;4.18;3.75;;;;;;;;;;4973444;28;43991;-61
2022/11/15 06:24:10;;;;;;;4.40;4.00;;;;;;;;;;4972358;28;43789;-61
2022/11/15 06:26:57;;;;;;;4.03;3.72;;;;;;;;;;4975356;28;43502;-61
2022/11/15 06:29:44;;;;;;;4.65;4.25;;;;;;;;;;4977406;28;43446;-61
2022/11/15 06:32:30;;;;;;;5.18;3.95;;;;;;;;;;4988223;28;43466;-61
2022/11/15 06:35:17;;;;;;;4.53;4.13;;;;;;;;;;4972304;28;44768;-60
2022/11/15 06:38:05;;;;;;;4.43;3.95;;;;;;;;;;4974290;28;43906;-60
2022/11/15 06:40:51;;;;;;;4.47;4.07;;;;;;;;;;4977722;28;43444;-60
2022/11/15 06:43:38;;;;;;;4.90;4.28;;;;;;;;;;4975141;28;43482;-60
2022/11/15 06:46:25;;;;;;;4.53;4.03;;;;;;;;;;4974331;28;44671;-60
2022/11/15 06:49:11;;;;;;;5.40;4.53;;;;;;;;;;4974453;28;43393;-60
2022/11/15 06:51:58;;;;;;;5.50;4.22;;;;;;;;;;4973736;28;43378;-60
2022/11/15 06:54:45;;;;;;;4.57;4.10;;;;;;;;;;4978578;28;43483;-60
2022/11/15 06:57:32;;;;;;;4.97;4.05;;;;;;;;;;4970536;28;45032;-60
2022/11/15 07:00:19;;;;;;;4.78;4.28;;;;;;;;;;4975990;28;44054;-60
2022/11/15 07:03:05;;;;;;;4.88;4.32;;;;;;;;;;4979531;28;43514;-60
2022/11/15 07:05:53;;;;;;;5.55;4.53;;;;;;;;;;4974035;28;43482;-60
2022/11/15 07:08:41;;;;;;;5.43;4.10;;;;;;;;;;4981692;28;44988;-60
2022/11/15 07:11:27;;;;;;;5.97;4.40;;;;;;;;;;4973476;28;43498;-60
2022/11/15 07:14:14;;;;;;;6.10;4.80;;;;;;;;;;4970201;28;43461;-60
2022/11/15 07:17:00;;;;;;;5.40;4.60;;;;;;;;;;4975948;28;43449;-60
2022/11/15 07:19:47;;;;;;;5.40;4.75;;;;;;;;;;4980878;28;44038;-60
2022/11/15 07:22:33;;;;;;;4.93;4.43;;;;;;;;;;4967933;28;44260;-60
2022/11/15 07:25:20;;;;;;;6.32;4.65;;;;;;;;;;4977704;28;43536;-60
2022/11/15 07:28:06;;;;;;;4.95;4.40;;;;;;;;;;4978026;28;43646;-60
2022/11/15 07:30:53;;;;;;;8.70;4.88;;;;;;;;;;4974297;28;45023;-60
2022/11/15 07:33:39;;;;;;;5.60;4.32;;;;;;;;;;4983816;28;43548;-60
2022/11/15 07:36:26;;;;;;;5.57;4.88;;;;;;;;;;4980747;28;43449;-60
2022/11/15 07:39:13;;;;;;;5.75;4.70;;;;;;;;;;4981941;28;43512;-60
2022/11/15 07:45:06;;;;;;;6.78;4.65;;;;;;;;;;4975679;28;43418;-60
2022/11/15 07:47:52;;;;;;;5.63;4.72;;;;;;;;;;4976853;28;43485;-61
2022/11/15 07:50:42;;;;;;;5.38;4.35;;;;;;;;;;4977842;28;43480;-60
2022/11/15 07:53:28;;;;;;;6.05;4.40;;;;;;;;;;4975791;28;44066;-61
2022/11/15 07:56:15;;;;;;;5.88;4.50;;;;;;;;;;4980590;28;43408;-60
2022/11/15 07:59:02;;;;;;;5.55;4.38;;;;;;;;;;4960060;28;43409;-60
2022/11/15 08:01:48;;;;;;;6.38;4.65;;;;;;;;;;4973294;28;43454;-60
2022/11/15 08:04:35;;;;;;;5.57;4.68;;;;;;;;;;4983066;28;43945;-61
2022/11/15 08:07:21;;;;;;;6.45;4.30;;;;;;;;;;4977607;28;43477;-61
2022/11/15 08:10:08;;;;;;;4.90;4.38;;;;;;;;;;4983610;28;43543;-60
2022/11/15 08:13:01;;;;;;;5.82;5.03;;;;;;;;;;4966151;28;43491;-60
2022/11/15 08:15:48;;;;;;;6.13;4.88;;;;;;;;;;4973109;28;44088;-60
2022/11/15 08:18:42;;;;;;;9.30;5.03;;;;;;;;;;4974569;28;43442;-60
2022/11/15 08:21:28;;;;;;;7.03;4.70;;;;;;;;;;4980441;28;43466;-61
2022/11/15 08:24:16;;;;;;;4.80;4.30;;;;;;;;;;4975141;28;43386;-61
2022/11/15 08:27:02;;;;;;;5.60;4.18;;;;;;;;;;4976208;28;43964;-61
2022/11/15 08:29:50;;;;;;;5.15;4.45;;;;;;;;;;4982255;28;43435;-61
2022/11/15 08:32:43;;;;;;;4.53;4.00;;;;;;;;;;4981289;28;43521;-61
2022/11/15 08:35:30;;;;;;;4.13;3.67;;;;;;;;;;4979323;28;43463;-61
2022/11/15 08:38:16;;;;;;;5.85;4.40;;;;;;;;;;4974896;28;43893;-60
2022/11/15 08:41:05;;;;;;;4.47;3.70;;;;;;;;;;4978784;28;43714;-60
2022/11/15 08:43:52;;;;;;;4.18;3.80;;;;;;;;;;4974693;28;43424;-61
2022/11/15 08:46:38;;;;;;;4.93;3.97;;;;;;;;;;4978464;28;43773;-61
2022/11/15 08:49:25;;;;;;;5.72;4.30;;;;;;;;;;4977833;28;43875;-60
2022/11/15 08:52:11;;;;;;;4.65;3.85;;;;;;;;;;4975803;28;43471;-61
2022/11/15 08:54:58;;;;;;;5.03;4.07;;;;;;;;;;4979488;28;43468;-61
2022/11/15 08:57:45;;;;;;;6.35;4.07;;;;;;;;;;4960152;28;43510;-60
2022/11/15 09:00:31;;;;;;;4.15;3.75;;;;;;;;;;4981830;28;43778;-61
2022/11/15 09:03:18;;;;;;;5.30;3.78;;;;;;;;;;4973293;28;43418;-61
2022/11/15 09:06:04;;;;;;;3.75;3.45;;;;;;;;;;4958308;28;43491;-61
2022/11/15 09:08:51;;;;;;;4.40;3.80;;;;;;;;;;4978915;28;43518;-61
2022/11/15 09:11:37;;;;;;;5.00;3.90;;;;;;;;;;4983287;28;45265;-61
2022/11/15 09:14:25;;;;;;;5.75;3.97;;;;;;;;;;4972842;28;43993;-60
2022/11/15 09:17:11;;;;;;;3.80;3.40;;;;;;;;;;4962898;28;44025;-61
2022/11/15 09:19:58;;;;;;;5.70;3.70;;;;;;;;;;4976874;28;43426;-63
2022/11/15 09:22:44;;;;;;;4.22;3.65;;;;;;;;;;4960263;28;44132;-63
2022/11/15 09:25:31;;;;;;;3.72;3.42;;;;;;;;;;4963636;28;43548;-63
2022/11/15 09:28:18;;;;;;;3.88;3.58;;;;;;;;;;4955553;28;43453;-62
2022/11/15 09:31:06;;;;;;;3.97;3.22;;;;;;;;;;4979862;28;43444;-62
2022/11/15 09:33:52;;;;;;;3.97;3.40;;;;;;;;;;4960287;28;44195;-62
2022/11/15 09:36:39;;;;;;;3.67;3.30;;;;;;;;;;4977241;28;43413;-62
2022/11/15 09:39:25;;;;;;;3.60;3.20;;;;;;;;;;4977100;28;43514;-62
2022/11/15 09:42:24;;;;;;;4.70;3.28;;;;;;;;;;4947547;28;43421;-62
2022/11/15 09:45:14;;;;;;;4.05;3.05;;;;;;;;;;4971590;28;44044;-60
2022/11/15 09:48:19;;;;;;;4.53;3.37;;;;;;;;;;4980117;28;43446;-59
2022/11/15 09:51:15;;;;;;;6.68;3.13;;;;;;;;;;4956017;28;43606;-59
2022/11/15 09:54:01;;;;;;;3.45;3.15;;;;;;;;;;4978030;28;43494;-59
2022/11/15 09:56:50;;;;;;;3.22;2.92;;;;;;;;;;4976108;28;44073;-62
2022/11/15 09:59:18;;;;;;;3.58;3.00;;;;;;;;;;4960370;28;43440;-63
2022/11/15 10:01:55;;;;;;;4.13;3.40;;;;;;;;;;4977932;28;43514;-63
2022/11/15 10:04:23;;;;;;;3.00;2.80;;;;;;;;;;4982484;28;43518;-62
2022/11/15 10:07:09;;;;;;;3.58;2.83;;;;;;;;;;4975631;28;43862;-62
2022/11/15 10:09:40;;;;;;;4.30;3.15;;;;;;;;;;4972000;28;43422;-61
2022/11/15 10:12:09;;;;;;;4.45;2.92;;;;;;;;;;4983925;28;43461;-62
2022/11/15 10:14:37;;;;;;;3.83;3.17;;;;;;;;;;4975610;28;43576;-62
2022/11/15 10:17:25;;;;;;;3.67;2.65;;;;;;;;;;4974776;28;44966;-63
2022/11/15 10:20:01;;;;;;;4.90;2.80;;;;;;;;;;4979808;28;43385;-61
2022/11/15 10:22:40;;;;;;;3.30;2.60;;;;;;;;;;4971084;28;43431;-61
2022/11/15 10:25:16;;;;;;;3.40;2.85;;;;;;;;;;4977065;28;43422;-61
2022/11/15 10:27:45;;;;;;;3.22;2.92;;;;;;;;;;4960094;28;44191;-61
2022/11/15 10:30:15;;;;;;;2.90;2.60;;;;;;;;;;4980034;28;43389;-61
2022/11/15 10:32:44;;;;;;;4.13;2.70;;;;;;;;;;4974782;28;43530;-60
2022/11/15 10:35:38;;;;;;;3.67;3.00;;;;;;;;;;4979359;28;43590;-62
2022/11/15 10:38:09;;;;;;;3.28;2.80;;;;;;;;;;4975740;28;44045;-60
2022/11/15 10:40:38;;;;;;;3.85;2.70;;;;;;;;;;4978629;28;43990;-60
2022/11/15 10:43:10;;;;;;;2.55;2.33;;;;;;;;;;4977998;28;43478;-61
2022/11/15 10:45:38;;;;;;;4.35;2.30;;;;;;;;;;4981642;28;43671;-60
2022/11/15 10:48:48;;;;;;;2.88;2.47;;;;;;;;;;5137992;27;43581;-59
2022/11/15 10:51:27;;;;;;;2.65;2.45;;;;;;;;;;5124306;27;43399;-59
2022/11/15 10:53:58;;;;;;;2.80;2.60;;;;;;;;;;5126780;27;43508;-59
2022/11/15 10:56:27;;;;;;;3.43;2.60;;;;;;;;;;5121015;27;43547;-59
2022/11/15 10:58:56;;;;;;;3.42;2.63;;;;;;;;;;5123009;27;43849;-59
2022/11/15 11:01:25;;;;;;;3.00;2.80;;;;;;;;;;5123263;27;43585;-59
2022/11/15 11:04:09;;;;;;;2.80;2.60;;;;;;;;;;5120967;27;43492;-59
2022/11/15 11:06:48;;;;;;;3.22;2.30;;;;;;;;;;5123732;27;43534;-59
2022/11/15 11:09:22;;;;;;;2.50;2.30;;;;;;;;;;5121372;27;43884;-59
2022/11/15 11:11:51;;;;;;;2.50;2.30;;;;;;;;;;5126265;27;44018;-59
2022/11/15 11:14:35;;;;;;;2.80;2.60;;;;;;;;;;5128190;27;43475;-59
2022/11/15 11:17:03;;;;;;;2.65;2.30;;;;;;;;;;5117318;27;43577;-59
2022/11/15 11:19:34;;;;;;;2.88;2.53;;;;;;;;;;5118061;27;43890;-59
2022/11/15 11:22:11;;;;;;;2.60;2.40;;;;;;;;;;5123436;27;43916;-59
2022/11/15 11:24:54;;;;;;;2.60;2.40;;;;;;;;;;5117973;27;43463;-59
2022/11/15 11:27:22;;;;;;;4.57;3.00;;;;;;;;;;5126814;27;43486;-59
2022/11/15 11:29:57;;;;;;;4.35;2.50;;;;;;;;;;5126048;27;44082;-59
2022/11/15 11:32:26;;;;;;;2.40;2.20;;;;;;;;;;5118374;27;44087;-59
2022/11/15 11:35:00;;;;;;;2.92;2.63;;;;;;;;;;5124538;27;43534;-60
2022/11/15 11:37:46;;;;;;;3.03;2.28;;;;;;;;;;5118809;27;43510;-59
2022/11/15 11:40:20;;;;;;;2.33;2.00;;;;;;;;;;5122275;27;43793;-60
2022/11/15 11:43:01;;;;;;;2.90;2.58;;;;;;;;;;5116555;27;43754;-59
2022/11/15 11:45:35;;;;;;;3.72;2.47;;;;;;;;;;5112985;27;43498;-59
2022/11/15 11:48:24;;;;;;;3.00;2.50;;;;;;;;;;5123321;27;43505;-59
2022/11/15 11:50:52;;;;;;;2.95;2.50;;;;;;;;;;5128911;27;43797;-59
2022/11/15 11:53:20;;;;;;;3.08;2.50;;;;;;;;;;5126328;27;43593;-59
2022/11/15 11:55:50;;;;;;;2.65;2.45;;;;;;;;;;5123136;27;43370;-59
2022/11/15 11:58:22;;;;;;;2.55;2.35;;;;;;;;;;5122299;27;43808;-59
2022/11/15 12:00:52;;;;;;;2.72;2.47;;;;;;;;;;5085273;27;43738;-59
2022/11/15 12:03:29;;;;;;;2.50;2.30;;;;;;;;;;5108965;27;43514;-59
2022/11/15 12:06:06;;;;;;;3.03;2.40;;;;;;;;;;5107988;27;43441;-59
2022/11/15 12:08:42;;;;;;;2.70;2.50;;;;;;;;;;5105922;27;43424;-59
2022/11/15 12:11:09;;;;;;;2.55;2.35;;;;;;;;;;5096923;27;43778;-59
2022/11/15 12:13:38;;;;;;;2.72;2.53;;;;;;;;;;5105207;27;43930;-59
2022/11/15 12:16:11;;;;;;;2.60;2.40;;;;;;;;;;5105622;27;43504;-59
2022/11/15 12:18:39;;;;;;;3.58;2.55;;;;;;;;;;5106536;27;43447;-59
2022/11/15 12:21:35;;;;;;;2.42;2.22;;;;;;;;;;5091172;27;43787;-59
2022/11/15 12:24:05;;;;;;;3.97;2.50;;;;;;;;;;5104721;27;43476;-59
2022/11/15 12:26:40;;;;;;;2.90;2.58;;;;;;;;;;5101949;27;43456;-59
2022/11/15 12:29:16;;;;;;;2.40;2.20;;;;;;;;;;5100824;27;43430;-60
2022/11/15 12:31:46;;;;;;;2.58;2.20;;;;;;;;;;5106076;27;43874;-59
2022/11/15 12:34:20;;;;;;;2.38;1.90;;;;;;;;;;5099301;27;43428;-59
2022/11/15 12:36:49;;;;;;;2.40;2.20;;;;;;;;;;5104717;27;43537;-59
2022/11/15 12:39:17;;;;;;;3.00;2.35;;;;;;;;;;5106341;27;43471;-59
2022/11/15 12:42:06;;;;;;;2.88;2.58;;;;;;;;;;5105422;27;44994;-60
2022/11/15 12:44:39;;;;;;;2.50;2.28;;;;;;;;;;5050634;27;43505;-59
2022/11/15 12:47:10;;;;;;;2.28;2.10;;;;;;;;;;5108354;27;43928;-59
2022/11/15 12:49:37;;;;;;;4.10;2.33;;;;;;;;;;5103626;27;43419;-59
2022/11/15 12:52:07;;;;;;;2.28;2.03;;;;;;;;;;5104935;27;43894;-58
2022/11/15 12:54:41;;;;;;;2.63;2.05;;;;;;;;;;5105617;27;43377;-59
2022/11/15 12:57:09;;;;;;;2.53;2.13;;;;;;;;;;5105501;27;43374;-59
2022/11/15 12:59:54;;;;;;;2.30;2.10;;;;;;;;;;5105911;27;43521;-59
2022/11/15 13:02:29;;;;;;;3.22;2.55;;;;;;;;;;5083612;27;43612;-59
2022/11/15 13:05:18;;;;;;;2.47;2.28;;;;;;;;;;5109156;27;43458;-59
2022/11/15 13:07:45;;;;;;;3.55;2.40;;;;;;;;;;5110969;27;43504;-58
2022/11/15 13:10:13;;;;;;;2.97;2.10;;;;;;;;;;5099054;27;43589;-59
2022/11/15 13:12:44;;;;;;;2.40;2.20;;;;;;;;;;5104599;27;44029;-59
2022/11/15 13:15:12;;;;;;;2.55;2.35;;;;;;;;;;5105095;27;43951;-59
2022/11/15 13:17:50;;;;;;;2.58;2.15;;;;;;;;;;5105940;27;43522;-59
2022/11/15 13:20:20;;;;;;;2.40;2.20;;;;;;;;;;5103210;27;43431;-59
2022/11/15 13:23:06;;;;;;;2.30;2.10;;;;;;;;;;5104670;27;43807;-59
2022/11/15 13:25:43;;;;;;;2.50;2.30;;;;;;;;;;5104822;27;43535;-59
2022/11/15 13:28:11;;;;;;;2.38;1.90;;;;;;;;;;5096455;27;43424;-59
2022/11/15 13:30:39;;;;;;;2.50;2.30;;;;;;;;;;5105801;27;43435;-59
2022/11/15 13:33:17;;;;;;;2.42;2.10;;;;;;;;;;5102585;27;44131;-59
2022/11/15 13:35:50;;;;;;;2.33;1.80;;;;;;;;;;5105827;27;43952;-59
2022/11/15 13:38:29;;;;;;;2.45;2.05;;;;;;;;;;5097401;27;43395;-59
2022/11/15 13:40:58;;;;;;;2.05;1.90;;;;;;;;;;5103703;27;43458;-59
2022/11/15 13:43:29;;;;;;;1.95;1.80;;;;;;;;;;5105442;27;44074;-59
2022/11/15 13:46:14;;;;;;;2.35;1.98;;;;;;;;;;5104381;27;43372;-59
2022/11/15 13:48:42;;;;;;;2.17;1.90;;;;;;;;;;5104174;27;43350;-59
2022/11/15 13:51:29;;;;;;;2.00;1.80;;;;;;;;;;5087541;27;43471;-59
2022/11/15 13:54:09;;;;;;;2.08;1.80;;;;;;;;;;5099628;27;43990;-59
2022/11/15 13:56:37;;;;;;;2.97;1.77;;;;;;;;;;5105124;27;43361;-59
2022/11/15 13:59:24;;;;;;;1.80;1.70;;;;;;;;;;5087091;27;43469;-59
2022/11/15 14:01:52;;;;;;;2.00;1.80;;;;;;;;;;5103924;27;43399;-59
2022/11/15 14:04:23;;;;;;;1.92;1.73;;;;;;;;;;5104584;27;44973;-59
2022/11/15 14:06:55;;;;;;;2.00;1.80;;;;;;;;;;5103731;27;43453;-59
2022/11/15 14:09:23;;;;;;;1.83;1.73;;;;;;;;;;5101481;27;43381;-59
2022/11/15 14:11:55;;;;;;;3.55;1.75;;;;;;;;;;5101777;27;43459;-59
2022/11/15 14:14:27;;;;;;;2.70;1.80;;;;;;;;;;5103621;27;44264;-59
2022/11/15 14:16:56;;;;;;;2.67;1.90;;;;;;;;;;5105918;27;43364;-59
2022/11/15 14:19:24;;;;;;;1.83;1.60;;;;;;;;;;5105489;27;43379;-59
2022/11/15 14:22:10;;;;;;;2.35;1.95;;;;;;;;;;5103309;27;43619;-59
2022/11/15 14:24:38;;;;;;;1.60;1.40;;;;;;;;;;5102989;27;43717;-59
2022/11/15 14:27:26;;;;;;;1.50;1.40;;;;;;;;;;5106953;27;43567;-59
2022/11/15 14:29:54;;;;;;;1.60;1.38;;;;;;;;;;5100423;27;43349;-59
2022/11/15 14:32:23;;;;;;;1.70;1.60;;;;;;;;;;5104184;27;43450;-59
2022/11/15 14:35:02;;;;;;;2.00;1.60;;;;;;;;;;5103047;27;43872;-59
2022/11/15 14:37:34;;;;;;;1.70;1.45;;;;;;;;;;5103600;27;43450;-59
2022/11/15 14:40:03;;;;;;;1.45;1.23;;;;;;;;;;5104008;27;43457;-59
2022/11/15 14:42:32;;;;;;;1.70;1.60;;;;;;;;;;5104213;27;43699;-59
2022/11/15 14:45:00;;;;;;;2.05;1.80;;;;;;;;;;5102938;27;44704;-59
2022/11/15 14:47:27;;;;;;;1.60;1.50;;;;;;;;;;5106300;27;43440;-59
2022/11/15 14:49:55;;;;;;;2.00;1.50;;;;;;;;;;5107193;27;43607;-59
2022/11/15 14:52:23;;;;;;;1.83;1.60;;;;;;;;;;5108451;27;43484;-59
2022/11/15 14:54:59;;;;;;;1.80;1.70;;;;;;;;;;5106232;27;44160;-59
2022/11/15 14:57:26;;;;;;;1.27;1.20;;;;;;;;;;5106603;27;43974;-59
2022/11/15 14:59:54;;;;;;;2.45;1.50;;;;;;;;;;5106665;27;43475;-59
2022/11/15 15:02:23;;;;;;;1.80;1.50;;;;;;;;;;5106889;27;43491;-59
2022/11/15 15:04:53;;;;;;;1.60;1.50;;;;;;;;;;5101285;27;44682;-59
2022/11/15 15:07:21;;;;;;;1.63;1.40;;;;;;;;;;5106782;27;43469;-59
2022/11/15 15:09:49;;;;;;;1.80;1.50;;;;;;;;;;5105581;27;43388;-59
2022/11/15 15:12:18;;;;;;;1.98;1.50;;;;;;;;;;5106475;27;43498;-59
2022/11/15 15:14:47;;;;;;;1.33;1.23;;;;;;;;;;5106479;27;43774;-59
2022/11/15 15:17:15;;;;;;;2.38;1.35;;;;;;;;;;5106460;27;43389;-59
2022/11/15 15:19:43;;;;;;;1.55;1.45;;;;;;;;;;5105408;27;43371;-59
2022/11/15 15:22:15;;;;;;;1.45;1.30;;;;;;;;;;5109488;27;43438;-59
2022/11/15 15:24:46;;;;;;;1.58;1.48;;;;;;;;;;5070622;27;43660;-58
2022/11/15 15:27:14;;;;;;;2.20;1.40;;;;;;;;;;5106112;27;43654;-59
2022/11/15 15:29:42;;;;;;;1.88;1.48;;;;;;;;;;5105974;27;43564;-59
2022/11/15 15:32:11;;;;;;;1.55;1.30;;;;;;;;;;5107692;27;43504;-59
2022/11/15 15:34:39;;;;;;;3.05;1.50;;;;;;;;;;5108559;27;44079;-59
2022/11/15 15:37:27;;;;;;;1.25;1.23;;;;;;;;;;5091238;27;43393;-59
2022/11/15 15:39:56;;;;;;;2.08;1.30;;;;;;;;;;5101091;27;43415;-59
2022/11/15 15:42:24;;;;;;;3.25;1.30;;;;;;;;;;5110038;27;43473;-59
2022/11/15 15:44:52;;;;;;;2.05;1.40;;;;;;;;;;5109781;27;43782;-59
2022/11/15 15:47:23;;;;;;;2.50;1.40;;;;;;;;;;5090155;27;43689;-59
2022/11/15 15:49:51;;;;;;;2.40;1.30;;;;;;;;;;5099118;27;43443;-59
2022/11/15 15:52:19;;;;;;;1.30;1.13;;;;;;;;;;5110550;27;43594;-58
2022/11/15 15:54:47;;;;;;;1.90;1.33;;;;;;;;;;5102773;27;43820;-59
2022/11/15 15:57:14;;;;;;;1.83;1.20;;;;;;;;;;5104175;27;43641;-59
2022/11/15 15:59:42;;;;;;;1.52;1.42;;;;;;;;;;5110623;27;43446;-59
2022/11/15 16:02:13;;;;;;;1.10;1.10;;;;;;;;;;5110682;27;43543;-59
2022/11/15 16:04:41;;;;;;;1.30;1.20;;;;;;;;;;5114741;27;43814;-59
2022/11/15 16:07:16;;;;;;;1.23;1.20;;;;;;;;;;5105316;27;43403;-59
2022/11/15 16:09:59;;;;;;;2.00;1.25;;;;;;;;;;5103151;27;43421;-59
2022/11/15 16:12:34;;;;;;;1.25;1.15;;;;;;;;;;5090678;27;43653;-58
2022/11/15 16:15:02;;;;;;;1.20;1.10;;;;;;;;;;5105365;27;44070;-59
2022/11/15 16:17:33;;;;;;;1.48;1.23;;;;;;;;;;5105536;27;44010;-59
2022/11/15 16:20:01;;;;;;;2.75;1.50;;;;;;;;;;5106309;27;43435;-59
2022/11/15 16:22:29;;;;;;;2.55;1.33;;;;;;;;;;5107132;27;43531;-59
2022/11/15 16:24:57;;;;;;;1.45;0.90;;;;;;;;;;5109421;27;43816;-59
2022/11/15 16:27:24;;;;;;;2.17;1.20;;;;;;;;;;5112210;27;43367;-59
2022/11/15 16:29:52;;;;;;;1.25;1.15;;;;;;;;;;5085040;27;43437;-59